Time,TemperatureF,DewpointF,PressureIn,WindDirection,WindDirectionDegrees,WindSpeedMPH,WindSpeedGustMPH,Humidity,HourlyPrecipIn,Conditions,Clouds,dailyrainin,SoftwareType,DateUTC
2013-06-29 00:01:00,61.7,58.1,29.18,NW,314,0.0,0.0,88,0.04,,---,0.00,VWS V14.01,2013-06-29 04:01:00,
2013-06-29 00:02:00,61.7,58.1,29.18,NW,314,0.0,0.0,88,0.04,,---,0.00,VWS V14.01,2013-06-29 04:02:00,
2013-06-29 00:07:00,61.7,58.1,29.18,NW,313,0.0,0.0,88,0.04,,---,0.00,VWS V14.01,2013-06-29 04:07:00,
2013-06-29 00:12:00,61.7,58.1,29.18,NW,314,0.0,0.0,88,0.04,,---,0.00,VWS V14.01,2013-06-29 04:12:00,
2013-06-29 00:18:00,61.7,58.1,29.18,NW,313,0.0,0.0,88,0.04,,---,0.00,VWS V14.01,2013-06-29 04:18:00,
2013-06-29 00:23:00,61.9,58.3,29.18,NW,313,0.0,0.0,88,0.04,,---,0.00,VWS V14.01,2013-06-29 04:23:00,
2013-06-29 00:28:00,61.9,58.3,29.18,NW,313,0.0,0.0,88,0.04,,---,0.00,VWS V14.01,2013-06-29 04:28:00,
2013-06-29 00:33:00,61.7,58.1,29.18,NW,314,0.0,0.0,88,0.04,,---,0.00,VWS V14.01,2013-06-29 04:33:00,
2013-06-29 00:38:00,61.9,58.3,29.18,NW,313,0.0,0.0,88,0.04,,---,0.00,VWS V14.01,2013-06-29 04:38:00,
2013-06-29 00:43:00,61.9,58.3,29.18,NW,313,0.0,0.0,88,0.04,,---,0.00,VWS V14.01,2013-06-29 04:43:00,
2013-06-29 00:48:00,61.9,58.3,29.18,NW,313,0.0,0.0,88,0.04,,---,0.00,VWS V14.01,2013-06-29 04:48:00,
2013-06-29 00:53:00,61.9,58.3,29.18,NW,314,0.0,0.0,88,0.04,,---,0.00,VWS V14.01,2013-06-29 04:53:00,
2013-06-29 00:58:00,61.9,58.3,29.18,NW,313,0.0,0.0,88,0.04,,---,0.00,VWS V14.01,2013-06-29 04:58:00,
2013-06-29 01:03:00,61.9,58.3,29.15,NW,313,0.0,0.0,88,0.00,,---,0.00,VWS V14.01,2013-06-29 05:03:00,
2013-06-29 01:08:00,61.9,58.3,29.15,NW,314,0.0,0.0,88,0.00,,---,0.00,VWS V14.01,2013-06-29 05:08:00,
2013-06-29 01:13:00,61.9,58.3,29.15,NW,313,0.0,0.0,88,0.00,,---,0.00,VWS V14.01,2013-06-29 05:13:00,
2013-06-29 01:18:00,61.9,58.3,29.18,NW,313,0.0,0.0,88,0.00,,---,0.00,VWS V14.01,2013-06-29 05:18:00,
2013-06-29 01:23:00,61.9,58.3,29.18,NW,314,0.0,0.0,88,0.00,,---,0.00,VWS V14.01,2013-06-29 05:23:00,
2013-06-29 01:28:00,61.9,58.3,29.18,NW,314,0.0,0.0,88,0.00,,---,0.00,VWS V14.01,2013-06-29 05:28:00,
2013-06-29 01:33:00,61.9,58.3,29.18,NW,313,0.0,0.0,88,0.00,,---,0.00,VWS V14.01,2013-06-29 05:33:00,
2013-06-29 01:38:00,61.9,58.3,29.18,NW,313,0.0,0.0,88,0.04,,---,0.04,VWS V14.01,2013-06-29 05:38:00,
2013-06-29 01:44:00,61.9,58.3,29.18,NW,314,0.0,0.0,88,0.04,,---,0.04,VWS V14.01,2013-06-29 05:44:00,
2013-06-29 01:49:00,61.9,58.3,29.15,NW,313,0.0,0.0,88,0.04,,---,0.04,VWS V14.01,2013-06-29 05:49:00,
2013-06-29 01:54:00,62.1,58.5,29.15,NW,313,0.0,0.0,88,0.04,,---,0.04,VWS V14.01,2013-06-29 05:54:00,
2013-06-29 01:59:00,62.1,58.5,29.15,NW,314,0.0,0.0,88,0.04,,---,0.04,VWS V14.01,2013-06-29 05:59:00,
2013-06-29 02:04:00,62.1,58.5,29.15,NW,313,0.0,0.0,88,0.04,,---,0.04,VWS V14.01,2013-06-29 06:04:00,
2013-06-29 02:09:00,62.1,58.5,29.15,NW,313,0.0,0.0,88,0.04,,---,0.04,VWS V14.01,2013-06-29 06:09:00,
2013-06-29 02:14:00,62.1,58.5,29.15,NW,314,0.0,0.0,88,0.08,,---,0.08,VWS V14.01,2013-06-29 06:14:00,
2013-06-29 02:19:00,61.9,58.3,29.15,NW,313,0.0,0.0,88,0.12,,---,0.12,VWS V14.01,2013-06-29 06:19:00,
2013-06-29 02:24:00,61.7,58.1,29.15,NW,313,0.0,0.0,88,0.16,,---,0.16,VWS V14.01,2013-06-29 06:24:00,
2013-06-29 02:29:00,61.7,58.1,29.15,NW,313,0.0,0.0,88,0.16,,---,0.16,VWS V14.01,2013-06-29 06:29:00,
2013-06-29 02:35:00,61.5,57.9,29.15,NW,313,0.0,0.0,88,0.24,,---,0.24,VWS V14.01,2013-06-29 06:35:00,
2013-06-29 02:40:00,61.5,57.9,29.15,NW,314,0.0,0.0,88,0.20,,---,0.24,VWS V14.01,2013-06-29 06:40:00,
2013-06-29 02:45:00,61.5,57.9,29.15,NW,313,0.0,0.0,88,0.24,,---,0.28,VWS V14.01,2013-06-29 06:45:00,
2013-06-29 02:50:00,61.5,57.9,29.15,NW,313,0.0,0.0,88,0.24,,---,0.28,VWS V14.01,2013-06-29 06:50:00,
2013-06-29 02:55:00,61.5,57.9,29.15,NW,313,0.0,0.0,88,0.24,,---,0.28,VWS V14.01,2013-06-29 06:55:00,
2013-06-29 03:00:00,61.5,57.9,29.15,NW,313,0.0,0.0,88,0.24,,---,0.28,VWS V14.01,2013-06-29 07:00:00,
2013-06-29 03:05:00,61.7,58.1,29.15,NW,313,0.0,0.0,88,0.24,,---,0.28,VWS V14.01,2013-06-29 07:05:00,
2013-06-29 03:10:00,61.7,58.1,29.15,NW,313,0.0,0.0,88,0.24,,---,0.28,VWS V14.01,2013-06-29 07:10:00,
2013-06-29 03:15:00,61.7,58.1,29.15,NW,313,0.0,0.0,88,0.20,,---,0.28,VWS V14.01,2013-06-29 07:15:00,
2013-06-29 03:20:00,61.7,58.1,29.15,NW,313,0.0,0.0,88,0.16,,---,0.28,VWS V14.01,2013-06-29 07:20:00,
2013-06-29 03:25:00,61.7,58.1,29.15,NW,313,0.0,0.0,88,0.12,,---,0.28,VWS V14.01,2013-06-29 07:25:00,
2013-06-29 03:30:00,61.7,58.1,29.15,NW,314,0.0,0.0,88,0.12,,---,0.28,VWS V14.01,2013-06-29 07:30:00,
2013-06-29 03:35:00,61.7,58.1,29.15,NW,313,0.0,0.0,88,0.04,,---,0.28,VWS V14.01,2013-06-29 07:35:00,
2013-06-29 03:41:00,61.9,58.3,29.15,NW,314,0.0,0.0,88,0.04,,---,0.28,VWS V14.01,2013-06-29 07:41:00,
2013-06-29 03:46:00,61.9,58.3,29.15,NW,314,0.0,0.0,88,0.00,,---,0.28,VWS V14.01,2013-06-29 07:46:00,
2013-06-29 03:51:00,61.9,58.3,29.15,NW,313,0.0,0.0,88,0.00,,---,0.28,VWS V14.01,2013-06-29 07:51:00,
2013-06-29 03:56:00,61.7,58.1,29.15,NW,313,0.0,0.0,88,0.00,,---,0.28,VWS V14.01,2013-06-29 07:56:00,
2013-06-29 04:01:00,61.7,58.1,29.15,NW,314,0.0,0.0,88,0.00,,---,0.28,VWS V14.01,2013-06-29 08:01:00,
2013-06-29 04:06:00,61.9,58.3,29.15,NW,314,0.0,0.0,88,0.00,,---,0.28,VWS V14.01,2013-06-29 08:06:00,
2013-06-29 04:11:00,61.9,58.3,29.15,NW,313,0.0,0.0,88,0.00,,---,0.28,VWS V14.01,2013-06-29 08:11:00,
2013-06-29 04:16:00,61.9,58.3,29.15,NW,313,0.0,0.0,88,0.00,,---,0.28,VWS V14.01,2013-06-29 08:16:00,
2013-06-29 04:21:00,61.9,58.3,29.15,NW,314,0.0,0.0,88,0.00,,---,0.28,VWS V14.01,2013-06-29 08:21:00,
2013-06-29 04:26:00,61.9,58.3,29.15,NW,313,0.0,0.0,88,0.00,,---,0.28,VWS V14.01,2013-06-29 08:26:00,
2013-06-29 04:32:00,61.9,58.3,29.15,NW,313,0.0,0.0,88,0.00,,---,0.28,VWS V14.01,2013-06-29 08:32:00,
2013-06-29 04:37:00,62.1,58.5,29.15,NW,313,0.0,0.0,88,0.00,,---,0.28,VWS V14.01,2013-06-29 08:37:00,
2013-06-29 04:42:00,62.1,58.5,29.15,NW,314,0.0,0.0,88,0.00,,---,0.28,VWS V14.01,2013-06-29 08:42:00,
2013-06-29 04:47:00,62.1,58.5,29.15,NW,314,0.0,0.0,88,0.00,,---,0.28,VWS V14.01,2013-06-29 08:47:00,
2013-06-29 04:52:00,62.2,58.7,29.15,NW,314,0.0,0.0,88,0.00,,---,0.28,VWS V14.01,2013-06-29 08:52:00,
2013-06-29 04:57:00,62.2,58.7,29.15,NW,313,0.0,0.0,88,0.00,,---,0.28,VWS V14.01,2013-06-29 08:57:00,
2013-06-29 05:02:00,62.2,58.7,29.15,NW,313,0.0,0.0,88,0.00,,---,0.28,VWS V14.01,2013-06-29 09:02:00,
2013-06-29 05:07:00,62.2,58.7,29.15,NW,314,0.0,0.0,88,0.00,,---,0.28,VWS V14.01,2013-06-29 09:07:00,
2013-06-29 05:12:00,62.2,58.7,29.15,NW,313,0.0,0.0,88,0.00,,---,0.28,VWS V14.01,2013-06-29 09:12:00,
2013-06-29 05:17:00,62.2,58.7,29.15,NW,313,0.0,0.0,88,0.00,,---,0.28,VWS V14.01,2013-06-29 09:17:00,
2013-06-29 05:22:00,62.2,58.7,29.15,NW,313,0.0,0.0,88,0.00,,---,0.28,VWS V14.01,2013-06-29 09:22:00,
2013-06-29 05:27:00,62.2,58.7,29.15,NW,313,0.0,0.0,88,0.00,,---,0.28,VWS V14.01,2013-06-29 09:27:00,
2013-06-29 05:33:00,62.2,58.7,29.15,NW,313,0.0,0.0,88,0.00,,---,0.28,VWS V14.01,2013-06-29 09:33:00,
2013-06-29 05:38:00,62.2,58.7,29.15,NW,313,0.0,0.0,88,0.00,,---,0.28,VWS V14.01,2013-06-29 09:38:00,
2013-06-29 05:43:00,62.2,58.7,29.15,NW,313,0.0,0.0,88,0.00,,---,0.28,VWS V14.01,2013-06-29 09:43:00,
2013-06-29 05:48:00,62.4,58.8,29.15,NW,313,0.0,0.0,88,0.00,,---,0.28,VWS V14.01,2013-06-29 09:48:00,
2013-06-29 05:53:00,62.4,58.8,29.15,NW,313,0.0,0.0,88,0.00,,---,0.28,VWS V14.01,2013-06-29 09:53:00,
2013-06-29 05:58:00,62.4,58.8,29.15,NW,313,0.0,0.0,88,0.00,,---,0.28,VWS V14.01,2013-06-29 09:58:00,
2013-06-29 06:03:00,62.6,59.0,29.15,NW,313,0.0,0.0,88,0.00,,---,0.28,VWS V14.01,2013-06-29 10:03:00,
2013-06-29 06:08:00,62.6,59.0,29.15,NW,313,0.0,0.0,88,0.00,,---,0.28,VWS V14.01,2013-06-29 10:08:00,
2013-06-29 06:13:00,62.6,59.0,29.15,NW,313,0.0,0.0,88,0.00,,---,0.28,VWS V14.01,2013-06-29 10:13:00,
2013-06-29 06:19:00,62.6,59.0,29.15,NW,313,0.0,0.0,88,0.00,,---,0.28,VWS V14.01,2013-06-29 10:19:00,
2013-06-29 06:24:00,62.6,59.0,29.15,NW,313,0.0,0.0,88,0.00,,---,0.28,VWS V14.01,2013-06-29 10:24:00,
2013-06-29 06:29:00,62.6,59.0,29.15,NW,313,0.0,0.0,88,0.00,,---,0.28,VWS V14.01,2013-06-29 10:29:00,
2013-06-29 06:34:00,62.6,59.0,29.15,NW,313,0.0,0.0,88,0.00,,---,0.28,VWS V14.01,2013-06-29 10:34:00,
2013-06-29 06:39:00,62.6,59.0,29.15,NW,313,0.0,0.0,88,0.04,,---,0.31,VWS V14.01,2013-06-29 10:39:00,
2013-06-29 06:44:00,62.6,59.0,29.15,NW,313,0.0,0.0,88,0.04,,---,0.31,VWS V14.01,2013-06-29 10:44:00,
2013-06-29 06:49:00,62.6,59.0,29.18,NW,314,0.0,0.0,88,0.04,,---,0.31,VWS V14.01,2013-06-29 10:49:00,
2013-06-29 06:54:00,62.6,59.0,29.18,NW,313,0.0,0.0,88,0.04,,---,0.31,VWS V14.01,2013-06-29 10:54:00,
2013-06-29 06:59:00,62.6,59.0,29.18,NW,313,0.0,0.0,88,0.04,,---,0.31,VWS V14.01,2013-06-29 10:59:00,
2013-06-29 07:04:00,62.6,59.0,29.18,NW,313,0.0,0.0,88,0.04,,---,0.31,VWS V14.01,2013-06-29 11:04:00,
2013-06-29 07:09:00,62.8,59.2,29.18,NW,313,0.0,0.0,88,0.04,,---,0.31,VWS V14.01,2013-06-29 11:09:00,
2013-06-29 07:14:00,62.8,59.2,29.18,NW,313,0.0,0.0,88,0.04,,---,0.31,VWS V14.01,2013-06-29 11:14:00,
2013-06-29 07:19:00,62.6,59.0,29.18,NW,313,0.0,0.0,88,0.04,,---,0.31,VWS V14.01,2013-06-29 11:19:00,
2013-06-29 07:24:00,62.6,59.0,29.18,NW,313,0.0,0.0,88,0.04,,---,0.31,VWS V14.01,2013-06-29 11:24:00,
2013-06-29 07:29:00,62.8,59.2,29.18,NW,313,0.0,0.0,88,0.04,,---,0.31,VWS V14.01,2013-06-29 11:29:00,
2013-06-29 07:34:00,62.8,59.2,29.18,NW,313,0.0,0.0,88,0.04,,---,0.31,VWS V14.01,2013-06-29 11:34:00,
2013-06-29 07:39:00,62.8,59.2,29.18,NW,313,0.0,0.0,88,0.00,,---,0.31,VWS V14.01,2013-06-29 11:39:00,
2013-06-29 07:44:00,62.8,59.2,29.18,NW,313,0.0,0.0,88,0.00,,---,0.31,VWS V14.01,2013-06-29 11:44:00,
2013-06-29 07:50:00,62.8,59.2,29.18,NW,313,0.0,0.0,88,0.00,,---,0.31,VWS V14.01,2013-06-29 11:50:00,
2013-06-29 07:55:00,62.8,59.2,29.18,NW,313,0.0,0.0,88,0.00,,---,0.31,VWS V14.01,2013-06-29 11:55:00,
2013-06-29 08:00:00,62.8,59.2,29.18,NW,313,0.0,0.0,88,0.00,,---,0.31,VWS V14.01,2013-06-29 12:00:00,
2013-06-29 08:05:00,62.8,59.2,29.18,NW,313,0.0,0.0,88,0.04,,---,0.35,VWS V14.01,2013-06-29 12:05:00,
2013-06-29 08:10:00,62.8,59.2,29.18,NW,313,0.0,0.0,88,0.04,,---,0.35,VWS V14.01,2013-06-29 12:10:00,
2013-06-29 08:15:00,62.8,59.2,29.18,NW,313,0.0,0.0,88,0.04,,---,0.35,VWS V14.01,2013-06-29 12:15:00,
2013-06-29 08:20:00,62.8,59.2,29.18,NW,313,0.0,0.0,88,0.04,,---,0.35,VWS V14.01,2013-06-29 12:20:00,
2013-06-29 08:25:00,62.8,59.2,29.18,NW,313,0.0,0.0,88,0.04,,---,0.35,VWS V14.01,2013-06-29 12:25:00,
2013-06-29 08:30:00,63.0,59.4,29.18,NW,313,0.0,0.0,88,0.04,,---,0.35,VWS V14.01,2013-06-29 12:30:00,
2013-06-29 08:35:00,63.1,59.5,29.18,NW,313,0.0,0.0,88,0.04,,---,0.35,VWS V14.01,2013-06-29 12:35:00,
2013-06-29 08:40:00,63.1,59.5,29.18,NW,313,0.0,0.0,88,0.08,,---,0.39,VWS V14.01,2013-06-29 12:40:00,
2013-06-29 08:45:00,63.1,59.5,29.18,NW,313,0.0,0.0,88,0.08,,---,0.39,VWS V14.01,2013-06-29 12:45:00,
2013-06-29 08:50:00,63.3,59.7,29.18,NW,313,0.0,0.0,88,0.08,,---,0.39,VWS V14.01,2013-06-29 12:50:00,
2013-06-29 08:55:00,63.5,59.9,29.18,NW,313,0.0,0.0,88,0.08,,---,0.39,VWS V14.01,2013-06-29 12:55:00,
2013-06-29 09:00:00,63.5,59.9,29.18,NW,313,0.0,0.0,88,0.08,,---,0.39,VWS V14.01,2013-06-29 13:00:00,
2013-06-29 09:05:00,63.5,59.9,29.18,NW,313,0.0,0.0,88,0.04,,---,0.39,VWS V14.01,2013-06-29 13:05:00,
2013-06-29 09:10:00,63.7,60.1,29.18,NW,313,0.0,0.0,88,0.04,,---,0.39,VWS V14.01,2013-06-29 13:10:00,
2013-06-29 09:15:00,63.9,60.2,29.18,NW,313,0.0,0.0,88,0.04,,---,0.39,VWS V14.01,2013-06-29 13:15:00,
2013-06-29 09:20:00,63.7,60.1,29.18,NW,313,0.0,0.0,88,0.04,,---,0.39,VWS V14.01,2013-06-29 13:20:00,
2013-06-29 09:26:00,63.7,60.1,29.18,NW,313,0.0,0.0,88,0.04,,---,0.39,VWS V14.01,2013-06-29 13:26:00,
2013-06-29 09:31:00,63.5,59.9,29.18,NW,313,0.0,0.0,88,0.08,,---,0.43,VWS V14.01,2013-06-29 13:31:00,
2013-06-29 09:36:00,63.7,60.1,29.18,NW,313,0.0,0.0,88,0.08,,---,0.43,VWS V14.01,2013-06-29 13:36:00,
2013-06-29 09:41:00,63.7,60.1,29.18,NW,313,0.0,0.0,88,0.04,,---,0.43,VWS V14.01,2013-06-29 13:41:00,
2013-06-29 09:46:00,63.9,60.2,29.18,NW,313,0.0,0.0,88,0.04,,---,0.43,VWS V14.01,2013-06-29 13:46:00,
2013-06-29 09:51:00,64.2,60.6,29.18,NW,313,0.0,0.0,88,0.04,,---,0.43,VWS V14.01,2013-06-29 13:51:00,
2013-06-29 09:56:00,64.6,61.0,29.18,NW,313,0.0,0.0,88,0.04,,---,0.43,VWS V14.01,2013-06-29 13:56:00,
2013-06-29 10:01:00,64.9,61.3,29.18,NW,313,0.0,0.0,88,0.04,,---,0.43,VWS V14.01,2013-06-29 14:01:00,
2013-06-29 10:06:00,65.1,61.5,29.18,NW,313,0.0,0.0,88,0.04,,---,0.43,VWS V14.01,2013-06-29 14:06:00,
2013-06-29 10:11:00,65.1,61.5,29.18,NW,313,0.0,0.0,88,0.08,,---,0.47,VWS V14.01,2013-06-29 14:11:00,
2013-06-29 10:17:00,65.3,61.7,29.18,NW,313,0.0,0.0,88,0.08,,---,0.47,VWS V14.01,2013-06-29 14:17:00,
2013-06-29 10:22:00,65.1,61.5,29.18,NW,313,0.0,0.0,88,0.08,,---,0.47,VWS V14.01,2013-06-29 14:22:00,
2013-06-29 10:27:00,65.1,61.5,29.18,NW,313,0.0,0.0,88,0.08,,---,0.47,VWS V14.01,2013-06-29 14:27:00,
2013-06-29 10:32:00,65.5,61.8,29.18,NW,313,0.0,0.0,88,0.04,,---,0.47,VWS V14.01,2013-06-29 14:32:00,
2013-06-29 10:37:00,65.5,61.8,29.18,NW,313,0.0,0.0,88,0.04,,---,0.47,VWS V14.01,2013-06-29 14:37:00,
2013-06-29 10:42:00,65.5,61.8,29.18,NW,313,0.0,0.0,88,0.04,,---,0.47,VWS V14.01,2013-06-29 14:42:00,
2013-06-29 10:47:00,65.8,62.2,29.18,NW,313,0.0,0.0,88,0.04,,---,0.47,VWS V14.01,2013-06-29 14:47:00,
2013-06-29 10:52:00,65.8,61.9,29.18,NW,313,0.0,0.0,87,0.04,,---,0.47,VWS V14.01,2013-06-29 14:52:00,
2013-06-29 10:57:00,66.4,62.1,29.18,NW,313,0.0,0.0,86,0.04,,---,0.47,VWS V14.01,2013-06-29 14:57:00,
2013-06-29 11:02:00,66.4,62.1,29.18,NW,313,0.0,0.0,86,0.04,,---,0.47,VWS V14.01,2013-06-29 15:02:00,
2013-06-29 11:07:00,66.2,61.6,29.18,NW,313,0.0,0.0,85,0.04,,---,0.47,VWS V14.01,2013-06-29 15:07:00,
2013-06-29 11:12:00,66.0,61.0,29.18,NW,313,0.0,0.0,84,0.00,,---,0.47,VWS V14.01,2013-06-29 15:12:00,
2013-06-29 11:17:00,66.6,61.6,29.18,NW,313,0.0,0.0,84,0.00,,---,0.47,VWS V14.01,2013-06-29 15:17:00,
2013-06-29 11:22:00,66.7,61.8,29.18,NW,313,0.0,0.0,84,0.00,,---,0.47,VWS V14.01,2013-06-29 15:22:00,
2013-06-29 11:27:00,66.6,61.2,29.18,NW,313,0.0,0.0,83,0.00,,---,0.47,VWS V14.01,2013-06-29 15:27:00,
2013-06-29 11:33:00,67.3,62.3,29.18,NW,313,0.0,0.0,84,0.00,,---,0.47,VWS V14.01,2013-06-29 15:33:00,
2013-06-29 11:38:00,67.3,62.0,29.18,NW,313,0.0,0.0,83,0.00,,---,0.47,VWS V14.01,2013-06-29 15:38:00,
2013-06-29 11:43:00,68.0,62.3,29.18,NW,313,0.0,0.0,82,0.00,,---,0.47,VWS V14.01,2013-06-29 15:43:00,
2013-06-29 11:48:00,68.5,62.8,29.18,NW,313,0.0,0.0,82,0.00,,---,0.47,VWS V14.01,2013-06-29 15:48:00,
2013-06-29 11:53:00,68.5,62.8,29.18,NW,313,0.0,0.0,82,0.00,,---,0.47,VWS V14.01,2013-06-29 15:53:00,
2013-06-29 11:58:00,68.7,62.7,29.18,NW,313,0.0,0.0,81,0.00,,---,0.47,VWS V14.01,2013-06-29 15:58:00,
2013-06-29 12:03:00,70.2,63.3,29.18,NW,313,0.0,0.0,79,0.00,,---,0.47,VWS V14.01,2013-06-29 16:03:00,
2013-06-29 12:08:00,71.4,64.6,29.18,NW,313,0.0,0.0,79,0.00,,---,0.47,VWS V14.01,2013-06-29 16:08:00,
2013-06-29 12:13:00,74.8,68.3,29.18,NW,313,0.0,0.0,80,0.00,,---,0.47,VWS V14.01,2013-06-29 16:13:00,
2013-06-29 12:18:00,75.7,66.5,29.18,NW,313,0.0,0.0,73,0.00,,---,0.47,VWS V14.01,2013-06-29 16:18:00,
2013-06-29 12:23:00,74.5,61.1,29.18,NW,313,0.0,0.0,63,0.00,,---,0.47,VWS V14.01,2013-06-29 16:23:00,
2013-06-29 12:28:00,72.9,60.4,29.18,NW,313,0.0,0.0,65,0.00,,---,0.47,VWS V14.01,2013-06-29 16:28:00,
2013-06-29 12:34:00,71.4,59.0,29.21,NW,313,0.0,0.0,65,0.00,,---,0.47,VWS V14.01,2013-06-29 16:34:00,
2013-06-29 12:39:00,70.5,59.5,29.21,NW,313,0.0,0.0,68,0.00,,---,0.47,VWS V14.01,2013-06-29 16:39:00,
2013-06-29 12:44:00,70.2,60.3,29.21,NW,313,0.0,0.0,71,0.00,,---,0.47,VWS V14.01,2013-06-29 16:44:00,
2013-06-29 12:49:00,69.6,60.2,29.21,NW,313,0.0,0.0,72,0.00,,---,0.47,VWS V14.01,2013-06-29 16:49:00,
2013-06-29 12:54:00,69.8,61.2,29.21,NW,313,0.0,0.0,74,0.00,,---,0.47,VWS V14.01,2013-06-29 16:54:00,
2013-06-29 12:59:00,70.0,61.7,29.21,NW,313,0.0,0.0,75,0.00,,---,0.47,VWS V14.01,2013-06-29 16:59:00,
2013-06-29 13:04:00,75.2,68.2,29.21,NW,313,0.0,0.0,79,0.00,,---,0.47,VWS V14.01,2013-06-29 17:04:00,
2013-06-29 13:09:00,77.0,67.3,29.21,NW,313,0.0,0.0,72,0.00,,---,0.47,VWS V14.01,2013-06-29 17:09:00,
2013-06-29 13:14:00,79.3,64.7,29.21,NW,311,0.0,0.0,61,0.00,,---,0.47,VWS V14.01,2013-06-29 17:14:00,
2013-06-29 13:20:00,79.5,58.1,29.21,NW,311,0.0,0.0,48,0.00,,---,0.47,VWS V14.01,2013-06-29 17:20:00,
2013-06-29 13:25:00,78.1,53.2,29.21,NNW,328,0.0,0.0,42,0.00,,---,0.47,VWS V14.01,2013-06-29 17:25:00,
2013-06-29 13:30:00,77.4,51.8,29.21,NNW,328,0.0,0.0,41,0.00,,---,0.47,VWS V14.01,2013-06-29 17:30:00,
2013-06-29 13:35:00,77.7,50.8,29.21,NW,310,0.0,0.0,39,0.00,,---,0.47,VWS V14.01,2013-06-29 17:35:00,
2013-06-29 13:40:00,78.4,51.5,29.21,NW,310,0.0,0.0,39,0.00,,---,0.47,VWS V14.01,2013-06-29 17:40:00,
2013-06-29 13:45:00,77.7,45.5,29.21,NW,310,0.0,0.0,32,0.00,,---,0.47,VWS V14.01,2013-06-29 17:45:00,
2013-06-29 13:50:00,77.7,44.7,29.21,NW,310,0.0,0.0,31,0.00,,---,0.47,VWS V14.01,2013-06-29 17:50:00,
2013-06-29 13:55:00,76.6,44.6,29.21,NW,317,0.0,0.0,32,0.00,,---,0.47,VWS V14.01,2013-06-29 17:55:00,
2013-06-29 14:00:00,77.0,44.9,29.21,NW,308,2.7,2.7,32,0.00,,---,0.47,VWS V14.01,2013-06-29 18:00:00,
2013-06-29 14:05:00,76.8,43.9,29.21,NW,314,0.0,0.0,31,0.00,,---,0.47,VWS V14.01,2013-06-29 18:05:00,
2013-06-29 14:10:00,76.8,44.8,29.21,NW,307,0.0,0.0,32,0.00,,---,0.47,VWS V14.01,2013-06-29 18:10:00,
2013-06-29 14:15:00,76.6,43.8,29.21,WNW,302,0.0,2.2,31,0.00,,---,0.47,VWS V14.01,2013-06-29 18:15:00,
2013-06-29 14:21:00,76.6,44.6,29.21,NW,309,0.0,0.0,32,0.00,,---,0.47,VWS V14.01,2013-06-29 18:21:00,
2013-06-29 14:26:00,77.0,44.1,29.21,SSW,204,0.0,0.0,31,0.00,,---,0.47,VWS V14.01,2013-06-29 18:26:00,
2013-06-29 14:31:00,76.6,43.8,29.21,WNW,294,0.0,0.0,31,0.00,,---,0.47,VWS V14.01,2013-06-29 18:31:00,
2013-06-29 14:36:00,77.2,44.2,29.21,NW,311,0.0,3.6,31,0.00,,---,0.47,VWS V14.01,2013-06-29 18:36:00,
2013-06-29 14:41:00,77.4,44.4,29.21,NNW,328,3.6,3.6,31,0.00,,---,0.47,VWS V14.01,2013-06-29 18:41:00,
2013-06-29 14:46:00,77.7,44.7,29.21,WNW,291,0.0,3.6,31,0.00,,---,0.47,VWS V14.01,2013-06-29 18:46:00,
2013-06-29 14:51:00,78.6,45.5,29.21,SSW,199,0.0,0.0,31,0.00,,---,0.47,VWS V14.01,2013-06-29 18:51:00,
2013-06-29 14:56:00,80.1,46.7,29.21,SSW,199,0.0,0.0,31,0.00,,---,0.47,VWS V14.01,2013-06-29 18:56:00,
2013-06-29 15:01:00,80.2,46.9,29.23,SSW,208,3.1,3.1,31,0.00,,---,0.47,VWS V14.01,2013-06-29 19:01:00,
2013-06-29 15:06:00,80.1,45.9,29.23,South,179,0.0,0.0,30,0.00,,---,0.47,VWS V14.01,2013-06-29 19:06:00,
2013-06-29 15:11:00,80.6,46.3,29.23,NW,310,0.0,0.0,30,0.00,,---,0.47,VWS V14.01,2013-06-29 19:11:00,
2013-06-29 15:16:00,80.4,46.2,29.23,NW,315,3.6,3.6,30,0.00,,---,0.47,VWS V14.01,2013-06-29 19:16:00,
2013-06-29 15:21:00,80.4,46.2,29.23,SW,223,0.0,2.7,30,0.00,,---,0.47,VWS V14.01,2013-06-29 19:21:00,
2013-06-29 15:26:00,81.7,47.3,29.23,WNW,303,0.0,0.0,30,0.00,,---,0.47,VWS V14.01,2013-06-29 19:26:00,
2013-06-29 15:31:00,83.8,48.2,29.23,WNW,303,0.0,0.0,29,0.00,,---,0.47,VWS V14.01,2013-06-29 19:31:00,
2013-06-29 15:36:00,83.7,48.1,29.23,NW,320,0.0,0.0,29,0.00,,---,0.47,VWS V14.01,2013-06-29 19:36:00,
2013-06-29 15:41:00,82.6,47.1,29.23,ENE,61,0.0,0.0,29,0.00,,---,0.47,VWS V14.01,2013-06-29 19:41:00,
2013-06-29 15:47:00,85.1,49.3,29.23,NNE,23,0.0,0.0,29,0.00,,---,0.47,VWS V14.01,2013-06-29 19:47:00,
2013-06-29 15:52:00,86.2,50.2,29.23,NNE,23,0.0,0.0,29,0.00,,---,0.47,VWS V14.01,2013-06-29 19:52:00,
2013-06-29 15:57:00,88.2,51.0,29.23,NW,315,3.6,3.6,28,0.00,,---,0.47,VWS V14.01,2013-06-29 19:57:00,
2013-06-29 16:02:00,89.2,51.9,29.23,NW,316,0.0,0.0,28,0.00,,---,0.47,VWS V14.01,2013-06-29 20:02:00,
2013-06-29 16:07:00,89.2,51.9,29.23,NW,316,0.0,0.0,28,0.00,,---,0.47,VWS V14.01,2013-06-29 20:07:00,
2013-06-29 16:12:00,92.3,53.5,29.23,NW,316,0.0,0.0,27,0.00,,---,0.47,VWS V14.01,2013-06-29 20:12:00,
2013-06-29 16:17:00,88.9,51.6,29.23,NW,316,0.0,0.0,28,0.00,,---,0.47,VWS V14.01,2013-06-29 20:17:00,
2013-06-29 16:22:00,90.0,52.5,29.23,NW,316,0.0,0.0,28,0.00,,---,0.47,VWS V14.01,2013-06-29 20:22:00,
2013-06-29 16:27:00,90.0,52.5,29.23,NW,316,0.0,0.0,28,0.00,,---,0.47,VWS V14.01,2013-06-29 20:27:00,
2013-06-29 16:32:00,90.1,52.7,29.23,NW,316,0.0,0.0,28,0.00,,---,0.47,VWS V14.01,2013-06-29 20:32:00,
2013-06-29 16:37:00,91.9,53.2,29.23,NW,316,0.0,0.0,27,0.00,,---,0.47,VWS V14.01,2013-06-29 20:37:00,
2013-06-29 16:43:00,92.7,53.8,29.23,NW,316,0.0,0.0,27,0.00,,---,0.47,VWS V14.01,2013-06-29 20:43:00,
2013-06-29 16:48:00,93.9,54.9,29.23,NW,316,0.0,0.0,27,0.00,,---,0.47,VWS V14.01,2013-06-29 20:48:00,
2013-06-29 16:53:00,95.2,56.0,29.23,NW,316,0.0,0.0,27,0.00,,---,0.47,VWS V14.01,2013-06-29 20:53:00,
2013-06-29 16:58:00,96.3,56.9,29.23,NW,316,0.0,0.0,27,0.00,,---,0.47,VWS V14.01,2013-06-29 20:58:00,
2013-06-29 17:03:00,96.4,57.0,29.23,NW,312,0.0,0.0,27,0.00,,---,0.47,VWS V14.01,2013-06-29 21:03:00,
2013-06-29 17:08:00,95.2,56.0,29.23,NW,312,0.0,0.0,27,0.00,,---,0.47,VWS V14.01,2013-06-29 21:08:00,
2013-06-29 17:13:00,92.8,54.0,29.23,NW,312,0.0,0.0,27,0.00,,---,0.47,VWS V14.01,2013-06-29 21:13:00,
2013-06-29 17:18:00,86.7,50.7,29.23,NW,312,0.0,0.0,29,0.00,,---,0.47,VWS V14.01,2013-06-29 21:18:00,
2013-06-29 17:24:00,80.4,46.2,29.23,NW,312,0.0,0.0,30,0.00,,---,0.47,VWS V14.01,2013-06-29 21:24:00,
2013-06-29 17:29:00,76.6,43.8,29.23,NW,312,0.0,0.0,31,0.00,,---,0.47,VWS V14.01,2013-06-29 21:29:00,
2013-06-29 17:34:00,75.4,42.7,29.23,SW,216,0.0,0.0,31,0.00,,---,0.47,VWS V14.01,2013-06-29 21:34:00,
2013-06-29 17:39:00,74.8,42.2,29.23,SW,216,0.0,0.0,31,0.00,,---,0.47,VWS V14.01,2013-06-29 21:39:00,
2013-06-29 17:44:00,74.1,41.6,29.23,NNW,342,0.0,0.0,31,0.00,,---,0.47,VWS V14.01,2013-06-29 21:44:00,
2013-06-29 17:49:00,73.8,41.3,29.23,SSW,209,0.0,0.0,31,0.00,,---,0.47,VWS V14.01,2013-06-29 21:49:00,
2013-06-29 17:54:00,73.6,41.1,29.23,SSW,209,0.0,0.0,31,0.00,,---,0.47,VWS V14.01,2013-06-29 21:54:00,
2013-06-29 17:59:00,73.6,41.1,29.23,WSW,249,0.0,0.0,31,0.00,,---,0.47,VWS V14.01,2013-06-29 21:59:00,
2013-06-29 18:04:00,73.0,41.5,29.26,WSW,249,0.0,0.0,32,0.00,,---,0.47,VWS V14.01,2013-06-29 22:04:00,
2013-06-29 18:10:00,72.7,41.2,29.26,WSW,249,0.0,0.0,32,0.00,,---,0.47,VWS V14.01,2013-06-29 22:10:00,
2013-06-29 18:15:00,72.5,41.0,29.26,WSW,249,0.0,0.0,32,0.00,,---,0.47,VWS V14.01,2013-06-29 22:15:00,
2013-06-29 18:20:00,72.3,40.8,29.26,WSW,249,0.0,0.0,32,0.00,,---,0.47,VWS V14.01,2013-06-29 22:20:00,
2013-06-29 18:25:00,72.1,40.7,29.26,WSW,249,0.0,0.0,32,0.00,,---,0.47,VWS V14.01,2013-06-29 22:25:00,
2013-06-29 18:30:00,71.6,40.2,29.26,WSW,249,0.0,0.0,32,0.00,,---,0.47,VWS V14.01,2013-06-29 22:30:00,
2013-06-29 18:35:00,71.2,39.9,29.26,WSW,249,0.0,0.0,32,0.00,,---,0.47,VWS V14.01,2013-06-29 22:35:00,
2013-06-29 18:40:00,71.1,39.7,29.26,WSW,249,0.0,0.0,32,0.00,,---,0.47,VWS V14.01,2013-06-29 22:40:00,
2013-06-29 18:45:00,71.1,39.7,29.26,WSW,249,0.0,0.0,32,0.00,,---,0.47,VWS V14.01,2013-06-29 22:45:00,
2013-06-29 18:50:00,71.2,39.9,29.26,WSW,249,0.0,0.0,32,0.00,,---,0.47,VWS V14.01,2013-06-29 22:50:00,
2013-06-29 18:55:00,71.4,40.0,29.26,WSW,249,0.0,0.0,32,0.00,,---,0.47,VWS V14.01,2013-06-29 22:55:00,
2013-06-29 19:00:00,71.8,40.4,29.26,WSW,249,0.0,0.0,32,0.00,,---,0.47,VWS V14.01,2013-06-29 23:00:00,
2013-06-29 19:05:00,72.1,40.7,29.26,WSW,249,0.0,0.0,32,0.00,,---,0.47,VWS V14.01,2013-06-29 23:05:00,
2013-06-29 19:11:00,72.1,40.7,29.26,WSW,249,0.0,0.0,32,0.00,,---,0.47,VWS V14.01,2013-06-29 23:11:00,
2013-06-29 19:16:00,72.0,40.5,29.26,WSW,249,0.0,0.0,32,0.00,,---,0.47,VWS V14.01,2013-06-29 23:16:00,
2013-06-29 19:21:00,72.0,40.5,29.26,WSW,249,0.0,0.0,32,0.00,,---,0.47,VWS V14.01,2013-06-29 23:21:00,
2013-06-29 19:26:00,72.1,40.7,29.26,WSW,249,0.0,0.0,32,0.00,,---,0.47,VWS V14.01,2013-06-29 23:26:00,
2013-06-29 19:31:00,72.1,40.7,29.29,WSW,249,0.0,0.0,32,0.00,,---,0.47,VWS V14.01,2013-06-29 23:31:00,
2013-06-29 19:36:00,72.0,40.5,29.29,NW,310,0.0,0.0,32,0.00,,---,0.47,VWS V14.01,2013-06-29 23:36:00,
2013-06-29 19:41:00,71.6,40.2,29.29,NW,310,0.0,0.0,32,0.00,,---,0.47,VWS V14.01,2013-06-29 23:41:00,
2013-06-29 19:46:00,71.4,40.0,29.29,NW,310,0.0,0.0,32,0.00,,---,0.47,VWS V14.01,2013-06-29 23:46:00,
2013-06-29 19:51:00,71.2,39.9,29.29,NW,310,0.0,0.0,32,0.00,,---,0.47,VWS V14.01,2013-06-29 23:51:00,
2013-06-29 19:56:00,70.9,39.6,29.29,NW,310,0.0,0.0,32,0.00,,---,0.47,VWS V14.01,2013-06-29 23:56:00,
2013-06-29 20:01:00,70.3,39.1,29.29,NW,310,0.0,0.0,32,0.00,,---,0.47,VWS V14.01,2013-06-30 00:01:00,
2013-06-29 20:07:00,70.0,38.8,29.29,NW,310,0.0,0.0,32,0.00,,---,0.47,VWS V14.01,2013-06-30 00:07:00,
2013-06-29 20:12:00,70.0,38.8,29.29,NW,310,0.0,0.0,32,0.00,,---,0.47,VWS V14.01,2013-06-30 00:12:00,
2013-06-29 20:17:00,69.6,39.3,29.29,NW,310,0.0,0.0,33,0.00,,---,0.47,VWS V14.01,2013-06-30 00:17:00,
2013-06-29 20:22:00,69.1,38.8,29.29,NW,310,0.0,0.0,33,0.00,,---,0.47,VWS V14.01,2013-06-30 00:22:00,
2013-06-29 20:27:00,68.5,38.3,29.29,NW,310,0.0,0.0,33,0.00,,---,0.47,VWS V14.01,2013-06-30 00:27:00,
2013-06-29 20:32:00,68.2,38.0,29.29,NW,310,0.0,0.0,33,0.00,,---,0.47,VWS V14.01,2013-06-30 00:32:00,
2013-06-29 20:37:00,67.6,37.5,29.29,NW,310,0.0,0.0,33,0.00,,---,0.47,VWS V14.01,2013-06-30 00:37:00,
2013-06-29 20:42:00,67.3,37.2,29.29,NW,310,0.0,0.0,33,0.00,,---,0.47,VWS V14.01,2013-06-30 00:42:00,
2013-06-29 20:47:00,66.9,37.7,29.29,NW,310,0.0,0.0,34,0.00,,---,0.47,VWS V14.01,2013-06-30 00:47:00,
2013-06-29 20:52:00,66.7,37.5,29.29,NW,310,0.0,0.0,34,0.00,,---,0.47,VWS V14.01,2013-06-30 00:52:00,
2013-06-29 20:58:00,66.6,37.3,29.29,NW,310,0.0,0.0,34,0.00,,---,0.47,VWS V14.01,2013-06-30 00:58:00,
2013-06-29 21:03:00,66.4,37.2,29.29,NW,310,0.0,0.0,34,0.00,,---,0.47,VWS V14.01,2013-06-30 01:03:00,
2013-06-29 21:08:00,66.2,37.0,29.29,NW,310,0.0,0.0,34,0.00,,---,0.47,VWS V14.01,2013-06-30 01:08:00,
2013-06-29 21:13:00,66.2,37.0,29.29,NW,310,0.0,0.0,34,0.00,,---,0.47,VWS V14.01,2013-06-30 01:13:00,
2013-06-29 21:18:00,66.2,37.0,29.29,NW,310,0.0,0.0,34,0.00,,---,0.47,VWS V14.01,2013-06-30 01:18:00,
2013-06-29 21:23:00,66.4,37.2,29.29,NW,310,0.0,0.0,34,0.00,,---,0.47,VWS V14.01,2013-06-30 01:23:00,
2013-06-29 21:28:00,66.4,37.2,29.29,NW,310,0.0,0.0,34,0.00,,---,0.47,VWS V14.01,2013-06-30 01:28:00,
2013-06-29 21:33:00,66.7,38.2,29.29,NW,310,0.0,0.0,35,0.00,,---,0.47,VWS V14.01,2013-06-30 01:33:00,
2013-06-29 21:38:00,66.9,38.4,29.29,NW,310,0.0,0.0,35,0.00,,---,0.47,VWS V14.01,2013-06-30 01:38:00,
2013-06-29 21:43:00,67.1,38.6,29.29,NW,310,0.0,0.0,35,0.00,,---,0.47,VWS V14.01,2013-06-30 01:43:00,
2013-06-29 21:48:00,67.3,38.7,29.32,NW,310,0.0,0.0,35,0.00,,---,0.47,VWS V14.01,2013-06-30 01:48:00,
2013-06-29 21:53:00,67.3,38.7,29.32,NW,310,0.0,0.0,35,0.00,,---,0.47,VWS V14.01,2013-06-30 01:53:00,
2013-06-29 21:58:00,67.3,38.7,29.32,NW,310,0.0,0.0,35,0.00,,---,0.47,VWS V14.01,2013-06-30 01:58:00,
2013-06-29 22:03:00,67.3,38.7,29.32,NW,310,0.0,0.0,35,0.00,,---,0.47,VWS V14.01,2013-06-30 02:03:00,
2013-06-29 22:08:00,67.3,38.0,29.32,NW,310,0.0,0.0,34,0.00,,---,0.47,VWS V14.01,2013-06-30 02:08:00,
2013-06-29 22:13:00,67.1,37.8,29.32,NW,310,0.0,0.0,34,0.00,,---,0.47,VWS V14.01,2013-06-30 02:13:00,
2013-06-29 22:18:00,67.1,37.8,29.32,NW,310,0.0,0.0,34,0.00,,---,0.47,VWS V14.01,2013-06-30 02:18:00,
2013-06-29 22:23:00,67.1,37.8,29.32,NW,310,0.0,0.0,34,0.00,,---,0.47,VWS V14.01,2013-06-30 02:23:00,
2013-06-29 22:29:00,67.1,37.8,29.32,NW,310,0.0,0.0,34,0.00,,---,0.47,VWS V14.01,2013-06-30 02:29:00,
2013-06-29 22:34:00,67.1,37.8,29.32,NW,310,0.0,0.0,34,0.00,,---,0.47,VWS V14.01,2013-06-30 02:34:00,
2013-06-29 22:39:00,67.1,37.8,29.32,NW,310,0.0,0.0,34,0.00,,---,0.47,VWS V14.01,2013-06-30 02:39:00,
2013-06-29 22:44:00,67.1,37.8,29.32,NW,310,0.0,0.0,34,0.00,,---,0.47,VWS V14.01,2013-06-30 02:44:00,
2013-06-29 22:49:00,67.3,38.0,29.32,NW,310,0.0,0.0,34,0.00,,---,0.47,VWS V14.01,2013-06-30 02:49:00,
2013-06-29 22:54:00,67.3,38.0,29.32,NW,310,0.0,0.0,34,0.00,,---,0.47,VWS V14.01,2013-06-30 02:54:00,
2013-06-29 22:59:00,67.1,37.8,29.32,NW,310,0.0,0.0,34,0.00,,---,0.47,VWS V14.01,2013-06-30 02:59:00,
2013-06-29 23:04:00,66.9,37.7,29.32,NW,310,0.0,0.0,34,0.00,,---,0.47,VWS V14.01,2013-06-30 03:04:00,
2013-06-29 23:09:00,66.9,37.7,29.32,NW,310,0.0,0.0,34,0.00,,---,0.47,VWS V14.01,2013-06-30 03:09:00,
2013-06-29 23:14:00,66.7,37.5,29.32,NW,310,0.0,0.0,34,0.00,,---,0.47,VWS V14.01,2013-06-30 03:14:00,
2013-06-29 23:19:00,66.7,37.5,29.32,NW,310,0.0,0.0,34,0.00,,---,0.47,VWS V14.01,2013-06-30 03:19:00,
2013-06-29 23:24:00,66.7,37.5,29.32,NW,310,0.0,0.0,34,0.00,,---,0.47,VWS V14.01,2013-06-30 03:24:00,
2013-06-29 23:29:00,66.7,38.2,29.32,NW,310,0.0,0.0,35,0.00,,---,0.47,VWS V14.01,2013-06-30 03:29:00,
2013-06-29 23:35:00,66.7,38.2,29.32,NW,310,0.0,0.0,35,0.00,,---,0.47,VWS V14.01,2013-06-30 03:35:00,
2013-06-29 23:40:00,66.7,38.2,29.32,NW,310,0.0,0.0,35,0.00,,---,0.47,VWS V14.01,2013-06-30 03:40:00,
2013-06-29 23:45:00,66.9,38.4,29.32,NW,310,0.0,0.0,35,0.00,,---,0.47,VWS V14.01,2013-06-30 03:45:00,
2013-06-29 23:50:00,66.9,38.4,29.32,NW,310,0.0,0.0,35,0.00,,---,0.47,VWS V14.01,2013-06-30 03:50:00,
2013-06-29 23:55:00,67.1,38.6,29.32,NW,310,0.0,0.0,35,0.00,,---,0.47,VWS V14.01,2013-06-30 03:55:00,